sensor_id;sensor_type;location;lat;lon;timestamp;temperature;humidity
3298;DHT22;1661;53.572;10.174;2022-12-29T00:01:00;8.80;98.10
3298;DHT22;1661;53.572;10.174;2022-12-29T00:03:27;8.80;98.10
3298;DHT22;1661;53.572;10.174;2022-12-29T00:05:54;8.80;98.00
3298;DHT22;1661;53.572;10.174;2022-12-29T00:08:21;8.80;98.20
3298;DHT22;1661;53.572;10.174;2022-12-29T00:11:06;8.90;98.20
3298;DHT22;1661;53.572;10.174;2022-12-29T00:13:35;8.90;97.90
3298;DHT22;1661;53.572;10.174;2022-12-29T00:16:19;9.00;97.90
3298;DHT22;1661;53.572;10.174;2022-12-29T00:18:46;9.10;97.50
3298;DHT22;1661;53.572;10.174;2022-12-29T00:21:14;9.10;97.50
3298;DHT22;1661;53.572;10.174;2022-12-29T00:23:59;9.10;97.30
3298;DHT22;1661;53.572;10.174;2022-12-29T00:26:55;9.20;97.30
3298;DHT22;1661;53.572;10.174;2022-12-29T00:29:43;9.20;96.90
3298;DHT22;1661;53.572;10.174;2022-12-29T00:32:28;9.20;96.70
3298;DHT22;1661;53.572;10.174;2022-12-29T00:35:23;9.10;96.90
3298;DHT22;1661;53.572;10.174;2022-12-29T00:37:52;9.20;97.10
3298;DHT22;1661;53.572;10.174;2022-12-29T00:40:38;9.20;96.80
3298;DHT22;1661;53.572;10.174;2022-12-29T00:43:23;9.10;97.10
3298;DHT22;1661;53.572;10.174;2022-12-29T00:46:08;9.10;97.40
3298;DHT22;1661;53.572;10.174;2022-12-29T00:48:41;9.00;97.70
3298;DHT22;1661;53.572;10.174;2022-12-29T00:51:25;9.00;97.90
3298;DHT22;1661;53.572;10.174;2022-12-29T00:53:52;9.10;97.60
3298;DHT22;1661;53.572;10.174;2022-12-29T00:56:18;9.20;97.40
3298;DHT22;1661;53.572;10.174;2022-12-29T00:58:47;9.30;97.20
3298;DHT22;1661;53.572;10.174;2022-12-29T01:01:13;9.30;96.90
3298;DHT22;1661;53.572;10.174;2022-12-29T01:03:40;9.40;96.80
3298;DHT22;1661;53.572;10.174;2022-12-29T01:06:09;9.40;96.60
3298;DHT22;1661;53.572;10.174;2022-12-29T01:08:36;9.40;96.60
3298;DHT22;1661;53.572;10.174;2022-12-29T01:11:05;9.40;96.60
3298;DHT22;1661;53.572;10.174;2022-12-29T01:13:32;9.40;96.70
3298;DHT22;1661;53.572;10.174;2022-12-29T01:16:00;9.40;96.50
3298;DHT22;1661;53.572;10.174;2022-12-29T01:18:27;9.40;96.70
3298;DHT22;1661;53.572;10.174;2022-12-29T01:20:58;9.50;96.30
3298;DHT22;1661;53.572;10.174;2022-12-29T01:23:25;9.50;96.30
3298;DHT22;1661;53.572;10.174;2022-12-29T01:25:52;9.60;95.80
3298;DHT22;1661;53.572;10.174;2022-12-29T01:28:19;9.60;96.00
3298;DHT22;1661;53.572;10.174;2022-12-29T01:30:46;9.60;95.90
3298;DHT22;1661;53.572;10.174;2022-12-29T01:33:14;9.70;95.50
3298;DHT22;1661;53.572;10.174;2022-12-29T01:35:41;9.60;95.50
3298;DHT22;1661;53.572;10.174;2022-12-29T01:38:08;9.60;95.60
3298;DHT22;1661;53.572;10.174;2022-12-29T01:40:43;9.60;95.60
3298;DHT22;1661;53.572;10.174;2022-12-29T01:43:12;9.70;95.60
3298;DHT22;1661;53.572;10.174;2022-12-29T01:45:41;9.70;95.40
3298;DHT22;1661;53.572;10.174;2022-12-29T01:48:10;9.80;95.30
3298;DHT22;1661;53.572;10.174;2022-12-29T01:50:45;9.70;95.00
3298;DHT22;1661;53.572;10.174;2022-12-29T01:53:16;9.70;95.30
3298;DHT22;1661;53.572;10.174;2022-12-29T01:55:48;9.80;95.30
3298;DHT22;1661;53.572;10.174;2022-12-29T01:58:15;9.80;95.50
3298;DHT22;1661;53.572;10.174;2022-12-29T02:00:44;9.70;95.90
3298;DHT22;1661;53.572;10.174;2022-12-29T02:03:11;9.70;96.10
3298;DHT22;1661;53.572;10.174;2022-12-29T02:05:42;9.70;96.30
3298;DHT22;1661;53.572;10.174;2022-12-29T02:08:13;9.70;96.50
3298;DHT22;1661;53.572;10.174;2022-12-29T02:10:44;9.70;96.50
3298;DHT22;1661;53.572;10.174;2022-12-29T02:13:11;9.70;96.60
3298;DHT22;1661;53.572;10.174;2022-12-29T02:15:48;9.70;96.70
3298;DHT22;1661;53.572;10.174;2022-12-29T02:18:32;9.70;96.90
3298;DHT22;1661;53.572;10.174;2022-12-29T02:21:27;9.70;97.00
3298;DHT22;1661;53.572;10.174;2022-12-29T02:24:11;9.70;97.00
3298;DHT22;1661;53.572;10.174;2022-12-29T02:26:56;9.80;96.70
3298;DHT22;1661;53.572;10.174;2022-12-29T02:29:44;9.80;96.60
3298;DHT22;1661;53.572;10.174;2022-12-29T02:32:25;9.70;97.00
3298;DHT22;1661;53.572;10.174;2022-12-29T02:35:01;9.60;97.30
3298;DHT22;1661;53.572;10.174;2022-12-29T02:37:34;9.70;97.30
3298;DHT22;1661;53.572;10.174;2022-12-29T02:40:14;9.70;97.20
3298;DHT22;1661;53.572;10.174;2022-12-29T02:42:48;9.70;97.20
3298;DHT22;1661;53.572;10.174;2022-12-29T02:45:21;9.70;97.00
3298;DHT22;1661;53.572;10.174;2022-12-29T02:47:54;9.70;96.90
3298;DHT22;1661;53.572;10.174;2022-12-29T02:50:27;9.70;96.80
3298;DHT22;1661;53.572;10.174;2022-12-29T02:52:59;9.70;96.80
3298;DHT22;1661;53.572;10.174;2022-12-29T02:55:26;9.70;96.90
3298;DHT22;1661;53.572;10.174;2022-12-29T02:58:13;9.70;97.00
3298;DHT22;1661;53.572;10.174;2022-12-29T03:00:47;9.70;97.20
3298;DHT22;1661;53.572;10.174;2022-12-29T03:03:22;9.70;97.00
3298;DHT22;1661;53.572;10.174;2022-12-29T03:06:17;9.80;96.90
3298;DHT22;1661;53.572;10.174;2022-12-29T03:08:52;9.90;96.70
3298;DHT22;1661;53.572;10.174;2022-12-29T03:11:24;9.90;96.40
3298;DHT22;1661;53.572;10.174;2022-12-29T03:14:17;9.80;96.50
3298;DHT22;1661;53.572;10.174;2022-12-29T03:17:09;9.80;96.50
3298;DHT22;1661;53.572;10.174;2022-12-29T03:19:45;9.80;96.50
3298;DHT22;1661;53.572;10.174;2022-12-29T03:22:18;9.80;96.60
3298;DHT22;1661;53.572;10.174;2022-12-29T03:24:59;9.80;96.50
3298;DHT22;1661;53.572;10.174;2022-12-29T03:27:32;9.80;96.70
3298;DHT22;1661;53.572;10.174;2022-12-29T03:30:02;9.80;96.60
3298;DHT22;1661;53.572;10.174;2022-12-29T03:32:36;9.80;96.50
3298;DHT22;1661;53.572;10.174;2022-12-29T03:35:10;9.90;96.40
3298;DHT22;1661;53.572;10.174;2022-12-29T03:37:41;9.90;96.40
3298;DHT22;1661;53.572;10.174;2022-12-29T03:40:08;9.90;96.10
3298;DHT22;1661;53.572;10.174;2022-12-29T03:42:37;10.00;96.00
3298;DHT22;1661;53.572;10.174;2022-12-29T03:45:07;10.00;96.00
3298;DHT22;1661;53.572;10.174;2022-12-29T03:47:33;10.00;95.90
3298;DHT22;1661;53.572;10.174;2022-12-29T03:50:00;10.00;95.50
3298;DHT22;1661;53.572;10.174;2022-12-29T03:52:28;10.10;95.20
3298;DHT22;1661;53.572;10.174;2022-12-29T03:54:58;10.00;95.40
3298;DHT22;1661;53.572;10.174;2022-12-29T03:57:24;10.00;95.50
3298;DHT22;1661;53.572;10.174;2022-12-29T03:59:51;10.00;95.30
3298;DHT22;1661;53.572;10.174;2022-12-29T04:02:18;10.00;95.40
3298;DHT22;1661;53.572;10.174;2022-12-29T04:04:45;10.00;95.30
3298;DHT22;1661;53.572;10.174;2022-12-29T04:07:11;9.90;95.40
3298;DHT22;1661;53.572;10.174;2022-12-29T04:09:40;9.90;95.50
3298;DHT22;1661;53.572;10.174;2022-12-29T04:12:06;9.90;95.50
3298;DHT22;1661;53.572;10.174;2022-12-29T04:14:33;9.90;95.50
3298;DHT22;1661;53.572;10.174;2022-12-29T04:17:00;9.90;95.40
3298;DHT22;1661;53.572;10.174;2022-12-29T04:19:29;9.90;95.40
3298;DHT22;1661;53.572;10.174;2022-12-29T04:21:56;10.00;95.10
3298;DHT22;1661;53.572;10.174;2022-12-29T04:24:26;10.00;94.80
3298;DHT22;1661;53.572;10.174;2022-12-29T04:26:58;9.90;95.10
3298;DHT22;1661;53.572;10.174;2022-12-29T04:29:25;10.00;95.30
3298;DHT22;1661;53.572;10.174;2022-12-29T04:31:51;10.00;95.20
3298;DHT22;1661;53.572;10.174;2022-12-29T04:34:18;10.00;94.90
3298;DHT22;1661;53.572;10.174;2022-12-29T04:36:45;10.00;95.10
3298;DHT22;1661;53.572;10.174;2022-12-29T04:39:12;9.90;95.50
3298;DHT22;1661;53.572;10.174;2022-12-29T04:41:39;10.00;95.50
3298;DHT22;1661;53.572;10.174;2022-12-29T04:44:07;10.00;95.30
3298;DHT22;1661;53.572;10.174;2022-12-29T04:46:36;10.00;95.30
3298;DHT22;1661;53.572;10.174;2022-12-29T04:49:03;10.00;95.40
3298;DHT22;1661;53.572;10.174;2022-12-29T04:51:37;10.00;95.50
3298;DHT22;1661;53.572;10.174;2022-12-29T04:54:03;10.00;95.50
3298;DHT22;1661;53.572;10.174;2022-12-29T04:56:30;10.00;95.40
3298;DHT22;1661;53.572;10.174;2022-12-29T04:58:57;10.00;95.70
3298;DHT22;1661;53.572;10.174;2022-12-29T05:01:25;10.00;95.90
3298;DHT22;1661;53.572;10.174;2022-12-29T05:03:52;10.00;96.00
3298;DHT22;1661;53.572;10.174;2022-12-29T05:06:19;10.00;96.10
3298;DHT22;1661;53.572;10.174;2022-12-29T05:08:45;10.00;96.30
3298;DHT22;1661;53.572;10.174;2022-12-29T05:11:15;10.00;96.30
3298;DHT22;1661;53.572;10.174;2022-12-29T05:13:45;10.00;96.60
3298;DHT22;1661;53.572;10.174;2022-12-29T05:16:11;10.00;96.90
3298;DHT22;1661;53.572;10.174;2022-12-29T05:18:40;10.00;97.00
3298;DHT22;1661;53.572;10.174;2022-12-29T05:21:06;10.00;97.80
3298;DHT22;1661;53.572;10.174;2022-12-29T05:23:33;10.00;97.90
3298;DHT22;1661;53.572;10.174;2022-12-29T05:26:00;10.00;98.00
3298;DHT22;1661;53.572;10.174;2022-12-29T05:28:27;10.00;98.20
3298;DHT22;1661;53.572;10.174;2022-12-29T05:30:53;10.00;98.10
3298;DHT22;1661;53.572;10.174;2022-12-29T05:33:20;10.00;98.20
3298;DHT22;1661;53.572;10.174;2022-12-29T05:35:48;10.10;98.20
3298;DHT22;1661;53.572;10.174;2022-12-29T05:38:15;10.10;98.20
3298;DHT22;1661;53.572;10.174;2022-12-29T05:40:42;10.10;98.10
3298;DHT22;1661;53.572;10.174;2022-12-29T05:43:09;10.10;98.20
3298;DHT22;1661;53.572;10.174;2022-12-29T05:45:36;10.00;98.50
3298;DHT22;1661;53.572;10.174;2022-12-29T05:48:04;10.00;98.50
3298;DHT22;1661;53.572;10.174;2022-12-29T05:50:30;10.10;98.40
3298;DHT22;1661;53.572;10.174;2022-12-29T05:52:59;10.10;98.20
3298;DHT22;1661;53.572;10.174;2022-12-29T05:55:25;10.20;98.10
3298;DHT22;1661;53.572;10.174;2022-12-29T05:57:52;10.20;97.90
3298;DHT22;1661;53.572;10.174;2022-12-29T06:00:19;10.20;97.80
3298;DHT22;1661;53.572;10.174;2022-12-29T06:02:46;10.20;97.90
3298;DHT22;1661;53.572;10.174;2022-12-29T06:05:13;10.20;98.00
3298;DHT22;1661;53.572;10.174;2022-12-29T06:07:40;10.20;97.90
3298;DHT22;1661;53.572;10.174;2022-12-29T06:10:08;10.20;97.50
3298;DHT22;1661;53.572;10.174;2022-12-29T06:12:35;10.10;97.60
3298;DHT22;1661;53.572;10.174;2022-12-29T06:15:02;10.20;97.50
3298;DHT22;1661;53.572;10.174;2022-12-29T06:17:29;10.20;97.30
3298;DHT22;1661;53.572;10.174;2022-12-29T06:19:55;10.30;97.30
3298;DHT22;1661;53.572;10.174;2022-12-29T06:22:22;10.30;97.00
3298;DHT22;1661;53.572;10.174;2022-12-29T06:24:49;10.40;96.90
3298;DHT22;1661;53.572;10.174;2022-12-29T06:27:17;10.40;96.80
3298;DHT22;1661;53.572;10.174;2022-12-29T06:29:44;10.40;96.70
3298;DHT22;1661;53.572;10.174;2022-12-29T06:32:11;10.50;96.60
3298;DHT22;1661;53.572;10.174;2022-12-29T06:34:38;10.50;96.40
3298;DHT22;1661;53.572;10.174;2022-12-29T06:37:05;10.60;96.10
3298;DHT22;1661;53.572;10.174;2022-12-29T06:39:32;10.60;95.90
3298;DHT22;1661;53.572;10.174;2022-12-29T06:41:58;10.60;95.50
3298;DHT22;1661;53.572;10.174;2022-12-29T06:44:27;10.60;95.50
3298;DHT22;1661;53.572;10.174;2022-12-29T06:46:53;10.70;95.40
3298;DHT22;1661;53.572;10.174;2022-12-29T06:49:20;10.70;95.30
3298;DHT22;1661;53.572;10.174;2022-12-29T06:51:47;10.70;95.20
3298;DHT22;1661;53.572;10.174;2022-12-29T06:54:14;10.80;95.20
3298;DHT22;1661;53.572;10.174;2022-12-29T06:56:41;10.80;94.80
3298;DHT22;1661;53.572;10.174;2022-12-29T06:59:12;10.80;94.70
3298;DHT22;1661;53.572;10.174;2022-12-29T07:01:40;10.80;94.40
3298;DHT22;1661;53.572;10.174;2022-12-29T07:04:07;10.80;94.30
3298;DHT22;1661;53.572;10.174;2022-12-29T07:06:33;10.80;94.10
3298;DHT22;1661;53.572;10.174;2022-12-29T07:09:00;10.90;94.20
3298;DHT22;1661;53.572;10.174;2022-12-29T07:11:27;10.90;93.60
3298;DHT22;1661;53.572;10.174;2022-12-29T07:13:54;10.90;93.40
3298;DHT22;1661;53.572;10.174;2022-12-29T07:16:21;11.00;93.20
3298;DHT22;1661;53.572;10.174;2022-12-29T07:18:49;11.00;93.00
3298;DHT22;1661;53.572;10.174;2022-12-29T07:21:17;11.00;93.00
3298;DHT22;1661;53.572;10.174;2022-12-29T07:23:47;11.00;92.90
3298;DHT22;1661;53.572;10.174;2022-12-29T07:26:15;11.00;92.90
3298;DHT22;1661;53.572;10.174;2022-12-29T07:28:43;11.00;92.80
3298;DHT22;1661;53.572;10.174;2022-12-29T07:31:14;10.90;92.90
3298;DHT22;1661;53.572;10.174;2022-12-29T07:33:41;11.00;92.90
3298;DHT22;1661;53.572;10.174;2022-12-29T07:36:10;10.90;93.10
3298;DHT22;1661;53.572;10.174;2022-12-29T07:38:37;10.80;93.40
3298;DHT22;1661;53.572;10.174;2022-12-29T07:41:04;10.80;93.80
3298;DHT22;1661;53.572;10.174;2022-12-29T07:43:31;10.80;93.90
3298;DHT22;1661;53.572;10.174;2022-12-29T07:45:58;10.80;94.00
3298;DHT22;1661;53.572;10.174;2022-12-29T07:48:27;10.80;94.20
3298;DHT22;1661;53.572;10.174;2022-12-29T07:50:54;10.80;94.30
3298;DHT22;1661;53.572;10.174;2022-12-29T07:53:22;10.80;94.50
3298;DHT22;1661;53.572;10.174;2022-12-29T07:55:49;10.70;94.40
3298;DHT22;1661;53.572;10.174;2022-12-29T07:58:16;10.70;94.60
3298;DHT22;1661;53.572;10.174;2022-12-29T08:00:44;10.60;94.60
3298;DHT22;1661;53.572;10.174;2022-12-29T08:03:11;10.30;95.80
3298;DHT22;1661;53.572;10.174;2022-12-29T08:05:43;10.30;96.10
3298;DHT22;1661;53.572;10.174;2022-12-29T08:08:10;10.20;95.80
3298;DHT22;1661;53.572;10.174;2022-12-29T08:10:38;10.20;96.00
3298;DHT22;1661;53.572;10.174;2022-12-29T08:13:05;10.20;96.00
3298;DHT22;1661;53.572;10.174;2022-12-29T08:15:36;10.30;95.90
3298;DHT22;1661;53.572;10.174;2022-12-29T08:18:03;10.40;95.90
3298;DHT22;1661;53.572;10.174;2022-12-29T08:20:31;10.40;95.90
3298;DHT22;1661;53.572;10.174;2022-12-29T08:22:58;10.50;95.60
3298;DHT22;1661;53.572;10.174;2022-12-29T08:25:25;10.50;95.50
3298;DHT22;1661;53.572;10.174;2022-12-29T08:27:53;10.50;95.30
3298;DHT22;1661;53.572;10.174;2022-12-29T08:30:20;10.50;95.60
3298;DHT22;1661;53.572;10.174;2022-12-29T08:32:47;10.50;95.60
3298;DHT22;1661;53.572;10.174;2022-12-29T08:35:13;10.50;95.60
3298;DHT22;1661;53.572;10.174;2022-12-29T08:37:43;10.50;95.40
3298;DHT22;1661;53.572;10.174;2022-12-29T08:40:10;10.60;95.30
3298;DHT22;1661;53.572;10.174;2022-12-29T08:42:37;10.60;94.80
3298;DHT22;1661;53.572;10.174;2022-12-29T08:45:09;10.50;94.80
3298;DHT22;1661;53.572;10.174;2022-12-29T08:47:36;10.60;95.20
3298;DHT22;1661;53.572;10.174;2022-12-29T08:50:04;10.60;95.20
3298;DHT22;1661;53.572;10.174;2022-12-29T08:52:31;10.70;95.00
3298;DHT22;1661;53.572;10.174;2022-12-29T08:54:58;10.60;94.60
3298;DHT22;1661;53.572;10.174;2022-12-29T08:57:25;10.70;94.50
3298;DHT22;1661;53.572;10.174;2022-12-29T08:59:52;10.70;94.40
3298;DHT22;1661;53.572;10.174;2022-12-29T09:02:20;10.70;94.30
3298;DHT22;1661;53.572;10.174;2022-12-29T09:04:54;10.80;94.10
3298;DHT22;1661;53.572;10.174;2022-12-29T09:07:22;10.80;94.10
3298;DHT22;1661;53.572;10.174;2022-12-29T09:09:49;10.90;94.20
3298;DHT22;1661;53.572;10.174;2022-12-29T09:12:19;10.90;93.60
3298;DHT22;1661;53.572;10.174;2022-12-29T09:14:46;10.90;92.80
3298;DHT22;1661;53.572;10.174;2022-12-29T09:17:13;10.80;92.90
3298;DHT22;1661;53.572;10.174;2022-12-29T09:19:59;10.80;92.50
3298;DHT22;1661;53.572;10.174;2022-12-29T09:22:26;10.80;92.70
3298;DHT22;1661;53.572;10.174;2022-12-29T09:24:52;10.80;92.20
3298;DHT22;1661;53.572;10.174;2022-12-29T09:27:19;10.90;92.00
3298;DHT22;1661;53.572;10.174;2022-12-29T09:29:46;11.00;91.60
3298;DHT22;1661;53.572;10.174;2022-12-29T09:32:13;11.00;91.10
3298;DHT22;1661;53.572;10.174;2022-12-29T09:34:40;11.00;90.40
3298;DHT22;1661;53.572;10.174;2022-12-29T09:37:08;11.00;90.60
3298;DHT22;1661;53.572;10.174;2022-12-29T09:39:34;11.10;89.90
3298;DHT22;1661;53.572;10.174;2022-12-29T09:42:06;11.00;89.60
3298;DHT22;1661;53.572;10.174;2022-12-29T09:44:46;11.00;89.50
3298;DHT22;1661;53.572;10.174;2022-12-29T09:47:16;11.10;89.60
3298;DHT22;1661;53.572;10.174;2022-12-29T09:49:47;11.10;89.20
3298;DHT22;1661;53.572;10.174;2022-12-29T09:52:21;11.10;88.70
3298;DHT22;1661;53.572;10.174;2022-12-29T09:54:53;11.00;88.50
3298;DHT22;1661;53.572;10.174;2022-12-29T09:57:25;11.00;88.60
3298;DHT22;1661;53.572;10.174;2022-12-29T09:59:57;11.00;88.30
3298;DHT22;1661;53.572;10.174;2022-12-29T10:02:44;10.90;88.00
3298;DHT22;1661;53.572;10.174;2022-12-29T10:05:18;11.00;88.00
3298;DHT22;1661;53.572;10.174;2022-12-29T10:07:55;11.00;88.20
3298;DHT22;1661;53.572;10.174;2022-12-29T10:10:34;11.00;87.10
3298;DHT22;1661;53.572;10.174;2022-12-29T10:13:20;11.20;86.90
3298;DHT22;1661;53.572;10.174;2022-12-29T10:15:58;11.20;86.90
3298;DHT22;1661;53.572;10.174;2022-12-29T10:21:31;11.30;85.50
3298;DHT22;1661;53.572;10.174;2022-12-29T10:24:07;11.40;85.30
3298;DHT22;1661;53.572;10.174;2022-12-29T10:26:39;11.30;84.50
3298;DHT22;1661;53.572;10.174;2022-12-29T10:29:12;11.30;84.90
3298;DHT22;1661;53.572;10.174;2022-12-29T10:31:43;11.30;84.10
3298;DHT22;1661;53.572;10.174;2022-12-29T10:34:19;11.20;84.20
3298;DHT22;1661;53.572;10.174;2022-12-29T10:36:48;11.30;83.80
3298;DHT22;1661;53.572;10.174;2022-12-29T10:39:21;11.40;83.70
3298;DHT22;1661;53.572;10.174;2022-12-29T10:41:53;11.40;83.50
3298;DHT22;1661;53.572;10.174;2022-12-29T10:44:25;11.20;84.00
3298;DHT22;1661;53.572;10.174;2022-12-29T10:47:00;11.20;83.40
3298;DHT22;1661;53.572;10.174;2022-12-29T10:49:30;11.30;83.70
3298;DHT22;1661;53.572;10.174;2022-12-29T10:52:00;11.40;82.40
3298;DHT22;1661;53.572;10.174;2022-12-29T10:54:36;11.50;82.50
3298;DHT22;1661;53.572;10.174;2022-12-29T10:57:09;11.50;82.10
3298;DHT22;1661;53.572;10.174;2022-12-29T10:59:41;11.40;81.80
3298;DHT22;1661;53.572;10.174;2022-12-29T11:02:29;11.40;82.40
3298;DHT22;1661;53.572;10.174;2022-12-29T11:05:03;11.30;82.60
3298;DHT22;1661;53.572;10.174;2022-12-29T11:07:33;11.40;82.70
3298;DHT22;1661;53.572;10.174;2022-12-29T11:10:20;11.40;82.50
3298;DHT22;1661;53.572;10.174;2022-12-29T11:12:58;11.40;82.70
3298;DHT22;1661;53.572;10.174;2022-12-29T11:15:25;11.50;82.10
3298;DHT22;1661;53.572;10.174;2022-12-29T11:17:53;11.40;81.80
3298;DHT22;1661;53.572;10.174;2022-12-29T11:20:29;11.40;81.40
3298;DHT22;1661;53.572;10.174;2022-12-29T11:22:57;11.40;81.20
3298;DHT22;1661;53.572;10.174;2022-12-29T11:25:25;11.40;81.60
3298;DHT22;1661;53.572;10.174;2022-12-29T11:27:57;11.40;81.80
3298;DHT22;1661;53.572;10.174;2022-12-29T11:30:26;11.40;81.50
3298;DHT22;1661;53.572;10.174;2022-12-29T11:32:57;11.50;80.60
3298;DHT22;1661;53.572;10.174;2022-12-29T11:35:33;11.50;80.80
3298;DHT22;1661;53.572;10.174;2022-12-29T11:38:01;11.40;81.00
3298;DHT22;1661;53.572;10.174;2022-12-29T11:40:30;11.40;80.30
3298;DHT22;1661;53.572;10.174;2022-12-29T11:43:00;11.30;80.20
3298;DHT22;1661;53.572;10.174;2022-12-29T11:45:33;11.30;80.50
3298;DHT22;1661;53.572;10.174;2022-12-29T11:48:07;11.30;80.20
3298;DHT22;1661;53.572;10.174;2022-12-29T11:50:39;11.30;80.20
3298;DHT22;1661;53.572;10.174;2022-12-29T11:53:15;11.40;80.20
3298;DHT22;1661;53.572;10.174;2022-12-29T11:55:51;11.40;80.70
3298;DHT22;1661;53.572;10.174;2022-12-29T11:58:19;11.40;80.10
3298;DHT22;1661;53.572;10.174;2022-12-29T12:00:48;11.40;80.60
3298;DHT22;1661;53.572;10.174;2022-12-29T12:03:18;11.30;80.60
3298;DHT22;1661;53.572;10.174;2022-12-29T12:05:49;11.20;81.30
3298;DHT22;1661;53.572;10.174;2022-12-29T12:08:27;11.20;81.70
3298;DHT22;1661;53.572;10.174;2022-12-29T12:11:04;11.30;81.30
3298;DHT22;1661;53.572;10.174;2022-12-29T12:13:37;11.30;81.40
3298;DHT22;1661;53.572;10.174;2022-12-29T12:16:08;11.20;81.80
3298;DHT22;1661;53.572;10.174;2022-12-29T12:18:41;11.20;82.40
3298;DHT22;1661;53.572;10.174;2022-12-29T12:21:13;11.10;82.50
3298;DHT22;1661;53.572;10.174;2022-12-29T12:23:57;11.10;82.20
3298;DHT22;1661;53.572;10.174;2022-12-29T12:26:32;11.10;82.50
3298;DHT22;1661;53.572;10.174;2022-12-29T12:29:04;11.10;82.40
3298;DHT22;1661;53.572;10.174;2022-12-29T12:31:44;11.00;82.80
3298;DHT22;1661;53.572;10.174;2022-12-29T12:34:17;11.10;83.10
3298;DHT22;1661;53.572;10.174;2022-12-29T12:37:02;11.10;83.10
3298;DHT22;1661;53.572;10.174;2022-12-29T12:39:40;11.00;83.70
3298;DHT22;1661;53.572;10.174;2022-12-29T12:42:25;11.00;83.70
3298;DHT22;1661;53.572;10.174;2022-12-29T12:45:01;11.00;83.50
3298;DHT22;1661;53.572;10.174;2022-12-29T12:47:44;11.00;83.30
3298;DHT22;1661;53.572;10.174;2022-12-29T12:50:27;11.10;83.70
3298;DHT22;1661;53.572;10.174;2022-12-29T12:53:24;11.00;82.90
3298;DHT22;1661;53.572;10.174;2022-12-29T12:58:53;11.10;82.70
3298;DHT22;1661;53.572;10.174;2022-12-29T13:01:37;11.20;82.40
3298;DHT22;1661;53.572;10.174;2022-12-29T13:04:29;11.10;82.40
3298;DHT22;1661;53.572;10.174;2022-12-29T13:07:07;11.10;82.90
3298;DHT22;1661;53.572;10.174;2022-12-29T13:09:52;11.00;83.50
3298;DHT22;1661;53.572;10.174;2022-12-29T13:12:32;11.00;83.80
3298;DHT22;1661;53.572;10.174;2022-12-29T13:15:17;11.00;82.90
3298;DHT22;1661;53.572;10.174;2022-12-29T13:17:52;10.90;82.50
3298;DHT22;1661;53.572;10.174;2022-12-29T13:20:29;10.90;82.40
3298;DHT22;1661;53.572;10.174;2022-12-29T13:23:02;10.90;82.20
3298;DHT22;1661;53.572;10.174;2022-12-29T13:25:36;11.00;81.90
3298;DHT22;1661;53.572;10.174;2022-12-29T13:28:10;10.90;81.00
3298;DHT22;1661;53.572;10.174;2022-12-29T13:30:44;10.90;81.20
3298;DHT22;1661;53.572;10.174;2022-12-29T13:33:20;11.00;81.50
3298;DHT22;1661;53.572;10.174;2022-12-29T13:35:59;11.00;82.00
3298;DHT22;1661;53.572;10.174;2022-12-29T13:38:32;11.10;81.90
3298;DHT22;1661;53.572;10.174;2022-12-29T13:41:04;11.10;82.00
3298;DHT22;1661;53.572;10.174;2022-12-29T13:43:34;11.10;81.90
3298;DHT22;1661;53.572;10.174;2022-12-29T13:46:09;11.10;81.90
3298;DHT22;1661;53.572;10.174;2022-12-29T13:48:40;11.00;82.10
3298;DHT22;1661;53.572;10.174;2022-12-29T13:51:10;11.00;82.70
3298;DHT22;1661;53.572;10.174;2022-12-29T13:53:47;10.90;82.30
3298;DHT22;1661;53.572;10.174;2022-12-29T13:56:19;11.00;82.50
3298;DHT22;1661;53.572;10.174;2022-12-29T13:58:54;11.00;82.50
3298;DHT22;1661;53.572;10.174;2022-12-29T14:01:34;11.00;82.40
3298;DHT22;1661;53.572;10.174;2022-12-29T14:04:03;11.00;81.90
3298;DHT22;1661;53.572;10.174;2022-12-29T14:06:36;10.90;82.00
3298;DHT22;1661;53.572;10.174;2022-12-29T14:09:26;10.80;83.20
3298;DHT22;1661;53.572;10.174;2022-12-29T14:11:54;10.90;83.40
3298;DHT22;1661;53.572;10.174;2022-12-29T14:14:23;10.80;83.50
3298;DHT22;1661;53.572;10.174;2022-12-29T14:16:52;10.80;84.70
3298;DHT22;1661;53.572;10.174;2022-12-29T14:19:23;10.80;85.30
3298;DHT22;1661;53.572;10.174;2022-12-29T14:21:52;10.80;85.60
3298;DHT22;1661;53.572;10.174;2022-12-29T14:24:40;10.80;86.00
3298;DHT22;1661;53.572;10.174;2022-12-29T14:33:28;9.90;85.70
3298;DHT22;1661;53.572;10.174;2022-12-29T14:36:17;9.60;86.40
3298;DHT22;1661;53.572;10.174;2022-12-29T14:38:45;9.50;87.80
3298;DHT22;1661;53.572;10.174;2022-12-29T14:41:24;9.40;87.80
3298;DHT22;1661;53.572;10.174;2022-12-29T14:43:56;9.30;87.90
3298;DHT22;1661;53.572;10.174;2022-12-29T14:46:23;9.20;88.90
3298;DHT22;1661;53.572;10.174;2022-12-29T14:48:58;9.20;89.00
3298;DHT22;1661;53.572;10.174;2022-12-29T14:51:32;9.30;89.20
3298;DHT22;1661;53.572;10.174;2022-12-29T14:57:09;9.30;89.60
3298;DHT22;1661;53.572;10.174;2022-12-29T14:59:37;9.20;90.10
3298;DHT22;1661;53.572;10.174;2022-12-29T15:02:15;9.20;90.40
3298;DHT22;1661;53.572;10.174;2022-12-29T15:04:44;9.20;90.80
3298;DHT22;1661;53.572;10.174;2022-12-29T15:07:11;9.10;91.10
3298;DHT22;1661;53.572;10.174;2022-12-29T15:09:41;9.10;91.00
3298;DHT22;1661;53.572;10.174;2022-12-29T15:12:20;9.10;91.40
3298;DHT22;1661;53.572;10.174;2022-12-29T15:14:52;9.10;91.70
3298;DHT22;1661;53.572;10.174;2022-12-29T15:17:25;9.10;91.60
3298;DHT22;1661;53.572;10.174;2022-12-29T15:19:54;9.20;91.30
3298;DHT22;1661;53.572;10.174;2022-12-29T15:22:22;9.20;91.20
3298;DHT22;1661;53.572;10.174;2022-12-29T15:24:51;9.20;90.90
3298;DHT22;1661;53.572;10.174;2022-12-29T15:27:23;9.20;90.70
3298;DHT22;1661;53.572;10.174;2022-12-29T15:29:56;9.10;91.00
3298;DHT22;1661;53.572;10.174;2022-12-29T15:32:29;9.20;91.10
3298;DHT22;1661;53.572;10.174;2022-12-29T15:34:58;9.30;90.80
3298;DHT22;1661;53.572;10.174;2022-12-29T15:37:33;9.30;90.60
3298;DHT22;1661;53.572;10.174;2022-12-29T15:40:01;9.30;90.40
3298;DHT22;1661;53.572;10.174;2022-12-29T15:42:42;9.30;90.30
3298;DHT22;1661;53.572;10.174;2022-12-29T15:45:13;9.40;90.30
3298;DHT22;1661;53.572;10.174;2022-12-29T15:47:45;9.40;90.50
3298;DHT22;1661;53.572;10.174;2022-12-29T15:50:21;9.40;90.30
3298;DHT22;1661;53.572;10.174;2022-12-29T15:52:49;9.40;90.50
3298;DHT22;1661;53.572;10.174;2022-12-29T15:55:25;9.30;90.80
3298;DHT22;1661;53.572;10.174;2022-12-29T15:57:56;9.30;90.80
3298;DHT22;1661;53.572;10.174;2022-12-29T16:00:26;9.40;90.80
3298;DHT22;1661;53.572;10.174;2022-12-29T16:02:54;9.40;90.50
3298;DHT22;1661;53.572;10.174;2022-12-29T16:05:24;9.40;90.30
3298;DHT22;1661;53.572;10.174;2022-12-29T16:07:54;9.40;90.30
3298;DHT22;1661;53.572;10.174;2022-12-29T16:10:31;9.40;90.20
3298;DHT22;1661;53.572;10.174;2022-12-29T16:13:05;9.40;90.00
3298;DHT22;1661;53.572;10.174;2022-12-29T16:15:33;9.30;89.80
3298;DHT22;1661;53.572;10.174;2022-12-29T16:18:00;9.30;90.00
3298;DHT22;1661;53.572;10.174;2022-12-29T16:20:39;9.20;89.80
3298;DHT22;1661;53.572;10.174;2022-12-29T16:23:18;9.20;90.00
3298;DHT22;1661;53.572;10.174;2022-12-29T16:25:46;9.20;89.80
3298;DHT22;1661;53.572;10.174;2022-12-29T16:28:18;9.20;89.70
3298;DHT22;1661;53.572;10.174;2022-12-29T16:31:01;9.20;89.40
3298;DHT22;1661;53.572;10.174;2022-12-29T16:33:37;9.20;89.30
3298;DHT22;1661;53.572;10.174;2022-12-29T16:36:28;9.10;89.70